Koppie Airport

Jump to: basic info | weather | runways | comments

Related pages: nearby airports | nearby navaids | notams | map

Basic information (top)

Codes: 7IS5
Location: lon 42.121399, lat -88.378098, elev 890 ft / 271 m msl
Status: small_airport

Weather (top)

Current conditions for Dupage Airport 14nm (26km) SSE (rec'd 2015/02/28 16:52Z):

KDPA 281652Z 19006KT 10SM CLR M11/M17 A3068 RMK AO2 SLP410 T11061172

Airport forecast for Dupage Airport 14nm (26km) SSE (rec'd 2015/02/28 12:42Z):

TAF KDPA 281140Z 2812/0112 19004KT P6SM FEW250 
     FM281600 16007KT P6SM SCT120 
     FM010000 14006KT P6SM OVC050 
     FM010300 15006KT 4SM -SN SCT018 OVC025 
      TEMPO 0103/0106 2SM -SN BKN015 
     FM010800 17004KT P6SM SCT025 OVC045

Runways (top)

N/S: 2,300 x 100 ft (701 x 30 m) — grass — not lighted

Latest comments (top)

No comments yet for Koppie Airport

More... (top)

See also NOTAMs and nearby airports and navaids, or visit the Koppie Airport page at the main OurAirports website..